createdAt,value
2022-09-10T00:00:45.150Z,100.00
2022-09-10T00:03:51.456Z,100.00
2022-09-10T00:06:55.335Z,100.00
2022-09-10T00:10:00.807Z,100.00
2022-09-10T00:13:03.665Z,100.00
2022-09-10T00:16:10.122Z,100.00
2022-09-10T00:19:14.879Z,100.00
2022-09-10T00:22:17.927Z,100.00
2022-09-10T00:25:20.718Z,100.00
2022-09-10T00:28:44.182Z,100.00
2022-09-10T00:31:46.983Z,100.00
2022-09-10T00:34:49.952Z,100.00
2022-09-10T00:37:52.761Z,100.00
2022-09-10T00:41:03.352Z,100.00
2022-09-10T00:44:37.485Z,100.00
2022-09-10T00:47:40.569Z,100.00
2022-09-10T00:50:47.056Z,100.00
2022-09-10T00:53:51.793Z,100.00
2022-09-10T00:56:57.263Z,100.00
2022-09-10T01:00:05.669Z,100.00
2022-09-10T01:03:11.354Z,100.00
2022-09-10T01:06:14.423Z,100.00
2022-09-10T01:09:18.338Z,100.00
2022-09-10T01:12:49.238Z,100.00
2022-09-10T01:16:03.693Z,100.00
2022-09-10T01:19:58.111Z,100.00
2022-09-10T01:23:23.243Z,100.00
2022-09-10T01:26:58.480Z,100.00
2022-09-10T01:30:06.235Z,100.00
2022-09-10T01:33:19.961Z,100.00
2022-09-10T01:36:28.417Z,100.00
2022-09-10T01:39:34.322Z,100.00
2022-09-10T01:42:41.911Z,100.00
2022-09-10T01:46:04.670Z,100.00
2022-09-10T01:49:10.641Z,100.00
2022-09-10T01:52:32.270Z,100.00
2022-09-10T01:56:15.479Z,100.00
2022-09-10T01:59:22.461Z,100.00
2022-09-10T02:02:31.045Z,100.00
2022-09-10T02:05:37.318Z,100.00
2022-09-10T02:08:43.633Z,100.00
2022-09-10T02:11:49.704Z,100.00
2022-09-10T02:14:56.773Z,100.00
2022-09-10T02:18:01.350Z,100.00
2022-09-10T02:21:04.282Z,100.00
2022-09-10T02:24:10.737Z,100.00
2022-09-10T02:27:13.407Z,100.00
2022-09-10T02:30:17.026Z,100.00
2022-09-10T02:33:19.784Z,100.00
2022-09-10T02:36:26.002Z,100.00
2022-09-10T02:39:29.537Z,100.00
2022-09-10T02:42:34.126Z,100.00
2022-09-10T02:45:38.534Z,100.00
2022-09-10T02:48:41.697Z,100.00
2022-09-10T02:51:44.772Z,100.00
2022-09-10T02:54:49.170Z,100.00
2022-09-10T02:57:52.607Z,100.00
2022-09-10T03:01:06.066Z,100.00
2022-09-10T03:04:09.700Z,100.00
2022-09-10T03:07:17.170Z,100.00
2022-09-10T03:10:20.525Z,100.00
2022-09-10T03:13:30.609Z,100.00
2022-09-10T03:16:33.429Z,100.00
2022-09-10T03:19:37.000Z,100.00
2022-09-10T03:22:39.649Z,100.00
2022-09-10T03:25:45.931Z,100.00
2022-09-10T03:28:50.637Z,100.00
2022-09-10T03:31:54.813Z,100.00
2022-09-10T03:35:00.007Z,100.00
2022-09-10T03:38:02.966Z,100.00
2022-09-10T03:41:05.785Z,100.00
2022-09-10T03:44:10.302Z,100.00
2022-09-10T03:47:14.219Z,100.00
2022-09-10T03:50:17.124Z,100.00
2022-09-10T03:53:20.177Z,100.00
2022-09-10T03:56:24.141Z,100.00
2022-09-10T03:59:26.999Z,100.00
2022-09-10T04:02:31.027Z,100.00
2022-09-10T04:05:34.045Z,100.00
2022-09-10T04:08:37.384Z,100.00
2022-09-10T04:11:42.677Z,100.00
2022-09-10T04:14:46.672Z,100.00
2022-09-10T04:17:55.093Z,100.00
2022-09-10T04:20:58.618Z,100.00
2022-09-10T04:24:02.086Z,100.00
2022-09-10T04:27:06.391Z,100.00
2022-09-10T04:30:10.517Z,100.00
2022-09-10T04:33:13.633Z,100.00
2022-09-10T04:36:17.253Z,100.00
2022-09-10T04:39:20.096Z,100.00
2022-09-10T04:42:24.209Z,100.00
2022-09-10T04:45:28.435Z,100.00
2022-09-10T04:48:33.605Z,100.00
2022-09-10T04:51:56.448Z,100.00
2022-09-10T04:55:00.308Z,100.00
2022-09-10T04:58:03.063Z,100.00
2022-09-10T05:01:07.059Z,100.00
2022-09-10T05:04:09.920Z,100.00
2022-09-10T05:07:13.580Z,100.00
2022-09-10T05:10:16.414Z,100.00
2022-09-10T05:13:19.601Z,100.00
2022-09-10T05:16:22.512Z,100.00
2022-09-10T05:19:29.061Z,100.00
2022-09-10T05:22:38.502Z,100.00
2022-09-10T05:25:44.540Z,100.00
2022-09-10T05:29:06.664Z,100.00
2022-09-10T05:32:09.887Z,100.00
2022-09-10T05:35:17.404Z,100.00
2022-09-10T05:38:21.349Z,100.00
2022-09-10T05:41:25.206Z,100.00
2022-09-10T05:44:29.523Z,100.00
2022-09-10T05:47:32.591Z,100.00
2022-09-10T05:50:35.847Z,100.00
2022-09-10T05:53:41.343Z,100.00
2022-09-10T05:56:48.797Z,100.00
2022-09-10T05:59:52.303Z,100.00
2022-09-10T06:02:57.357Z,100.00
2022-09-10T06:06:01.858Z,100.00
2022-09-10T06:09:04.841Z,100.00
2022-09-10T06:12:09.795Z,100.00
2022-09-10T06:15:13.156Z,100.00
2022-09-10T06:18:16.524Z,100.00
2022-09-10T06:21:20.213Z,100.00
2022-09-10T06:24:25.824Z,100.00
2022-09-10T06:27:29.848Z,100.00
2022-09-10T06:30:33.303Z,100.00
2022-09-10T06:33:36.354Z,100.00
2022-09-10T06:36:47.398Z,100.00
2022-09-10T06:39:51.090Z,97.23
2022-09-10T06:42:55.060Z,96.05
2022-09-10T06:45:59.882Z,99.83
2022-09-10T06:49:06.187Z,97.10
2022-09-10T06:52:11.573Z,96.46
2022-09-10T06:55:14.881Z,97.79
2022-09-10T06:58:23.450Z,97.31
2022-09-10T07:01:26.819Z,98.51
2022-09-10T07:04:29.817Z,99.69
2022-09-10T07:07:33.641Z,97.59
2022-09-10T07:10:39.110Z,98.80
2022-09-10T07:13:45.901Z,97.27
2022-09-10T07:16:51.555Z,94.30
2022-09-10T07:19:55.138Z,92.32
2022-09-10T07:22:59.730Z,90.52
2022-09-10T07:26:06.471Z,91.02
2022-09-10T07:29:33.275Z,91.12
2022-09-10T07:48:15.171Z,91.39
2022-09-10T07:51:19.278Z,91.39
2022-09-10T07:54:24.859Z,87.55
2022-09-10T07:57:31.283Z,88.31
2022-09-10T08:00:40.367Z,88.97
2022-09-10T08:03:56.327Z,89.07
2022-09-10T08:06:59.421Z,90.92
2022-09-10T08:10:11.298Z,84.95
2022-09-10T08:13:15.487Z,82.19
2022-09-10T08:16:44.196Z,83.23
2022-09-10T08:19:47.353Z,83.04
2022-09-10T08:22:50.817Z,82.19
2022-09-10T08:25:53.934Z,82.62
2022-09-10T08:28:57.917Z,85.86
2022-09-10T08:32:01.392Z,85.54
2022-09-10T08:35:05.915Z,87.00
2022-09-10T08:38:10.285Z,83.25
2022-09-10T08:41:19.438Z,86.76
2022-09-10T08:44:58.375Z,84.30
2022-09-10T08:48:08.785Z,84.53
2022-09-10T08:51:18.878Z,84.28
2022-09-10T08:55:00.043Z,87.25
2022-09-10T08:58:28.764Z,79.79
2022-09-10T09:01:42.677Z,84.03
2022-09-10T09:05:00.885Z,81.31
2022-09-10T09:08:06.291Z,82.46
2022-09-10T09:11:13.140Z,75.01
2022-09-10T09:14:42.714Z,74.09
2022-09-10T09:18:08.700Z,72.77
2022-09-10T09:21:36.118Z,73.44
2022-09-10T09:25:09.984Z,71.99
2022-09-10T09:28:55.148Z,74.21
2022-09-10T09:32:21.949Z,73.69
2022-09-10T09:35:34.820Z,72.78
2022-09-10T09:38:44.042Z,71.29
2022-09-10T09:42:07.872Z,73.59
2022-09-10T09:45:38.427Z,71.42
2022-09-10T09:48:42.239Z,66.01
2022-09-10T09:51:51.886Z,70.20
2022-09-10T09:55:14.415Z,66.99
2022-09-10T09:58:41.290Z,67.06
2022-09-10T10:01:46.006Z,62.69
2022-09-10T10:05:20.790Z,65.41
2022-09-10T10:08:34.302Z,62.84
2022-09-10T10:11:46.086Z,64.69
2022-09-10T10:14:51.537Z,64.41
2022-09-10T10:17:55.058Z,64.24
2022-09-10T10:21:34.893Z,58.51
2022-09-10T10:24:37.801Z,61.52
2022-09-10T10:27:45.379Z,59.52
2022-09-10T10:31:00.961Z,63.71
2022-09-10T10:34:19.597Z,63.39
2022-09-10T10:37:35.385Z,63.44
2022-09-10T10:41:07.547Z,67.85
2022-09-10T10:44:25.715Z,68.49
2022-09-10T10:48:16.399Z,66.13
2022-09-10T10:51:33.350Z,60.55
2022-09-10T10:54:44.115Z,61.81
2022-09-10T10:58:22.366Z,61.30
2022-09-10T11:01:30.030Z,60.79
2022-09-10T11:04:44.175Z,66.29
2022-09-10T11:07:47.443Z,64.96
2022-09-10T11:11:01.004Z,63.27
2022-09-10T11:14:23.268Z,60.79
2022-09-10T11:17:34.970Z,61.49
2022-09-10T11:21:05.235Z,62.55
2022-09-10T11:24:23.647Z,57.46
2022-09-10T11:27:31.458Z,57.78
2022-09-10T11:30:41.190Z,55.96
2022-09-10T11:34:12.292Z,52.50
2022-09-10T11:37:51.087Z,52.32
2022-09-10T11:41:22.327Z,56.36
2022-09-10T11:44:49.225Z,53.61
2022-09-10T11:48:35.409Z,52.71
2022-09-10T11:51:39.990Z,52.21
2022-09-10T11:54:43.936Z,56.22
2022-09-10T11:58:03.966Z,60.47
2022-09-10T12:01:37.460Z,61.02
2022-09-10T12:04:48.541Z,60.00
2022-09-10T12:08:06.482Z,57.48
2022-09-10T12:12:10.820Z,52.12
2022-09-10T12:15:37.297Z,56.70
2022-09-10T12:18:49.925Z,56.84
2022-09-10T12:22:01.786Z,54.53
2022-09-10T12:25:08.205Z,54.17
2022-09-10T12:28:53.685Z,49.95
2022-09-10T12:32:09.516Z,56.20
2022-09-10T12:35:31.007Z,57.72
2022-09-10T12:39:11.968Z,55.78
2022-09-10T12:42:30.915Z,57.94
2022-09-10T12:46:04.804Z,54.71
2022-09-10T12:49:13.539Z,56.44
2022-09-10T12:52:27.685Z,54.55
2022-09-10T12:55:49.308Z,56.31
2022-09-10T12:59:14.409Z,56.67
2022-09-10T13:02:26.385Z,55.83
2022-09-10T13:05:33.164Z,54.74
2022-09-10T13:08:44.285Z,52.90
2022-09-10T13:12:06.341Z,53.64
2022-09-10T13:15:21.515Z,52.73
2022-09-10T13:18:36.373Z,51.38
2022-09-10T13:21:45.189Z,50.20
2022-09-10T13:25:25.029Z,53.32
2022-09-10T13:28:31.315Z,55.94
2022-09-10T13:32:01.439Z,55.14
2022-09-10T13:35:50.001Z,54.19
2022-09-10T13:39:31.722Z,56.65
2022-09-10T13:42:49.681Z,55.85
2022-09-10T13:45:58.931Z,58.80
2022-09-10T13:49:16.667Z,57.03
2022-09-10T13:52:28.881Z,57.70
2022-09-10T13:55:32.184Z,58.61
2022-09-10T13:58:37.410Z,55.24
2022-09-10T14:01:52.371Z,55.76
2022-09-10T14:04:58.325Z,57.61
2022-09-10T14:08:10.927Z,56.71
2022-09-10T14:11:14.065Z,57.77
2022-09-10T14:14:40.385Z,58.60
2022-09-10T14:17:55.554Z,58.99
2022-09-10T14:20:59.787Z,59.29
2022-09-10T14:24:06.638Z,56.55
2022-09-10T14:27:22.835Z,58.58
2022-09-10T14:30:33.758Z,56.89
2022-09-10T14:34:24.202Z,57.10
2022-09-10T14:37:34.527Z,56.77
2022-09-10T14:40:38.818Z,57.50
2022-09-10T14:43:42.598Z,55.75
2022-09-10T14:46:46.911Z,57.61
2022-09-10T14:49:49.997Z,54.20
2022-09-10T14:52:52.816Z,58.34
2022-09-10T14:55:58.000Z,59.63
2022-09-10T14:59:03.628Z,60.08
2022-09-10T15:02:25.201Z,56.33
2022-09-10T15:05:27.949Z,60.02
2022-09-10T15:08:31.279Z,60.03
2022-09-10T15:11:35.756Z,60.66
2022-09-10T15:14:40.393Z,58.94
2022-09-10T15:17:43.398Z,54.87
2022-09-10T15:20:46.693Z,57.15
2022-09-10T15:23:49.409Z,57.13
2022-09-10T15:26:52.846Z,59.32
2022-09-10T15:29:58.013Z,59.37
2022-09-10T15:33:03.530Z,55.93
2022-09-10T15:36:06.876Z,59.37
2022-09-10T15:39:12.394Z,58.81
2022-09-10T15:42:15.592Z,58.54
2022-09-10T15:45:18.859Z,59.57
2022-09-10T15:48:25.671Z,60.26
2022-09-10T15:51:28.919Z,55.29
2022-09-10T15:54:33.443Z,55.97
2022-09-10T15:57:36.805Z,58.91
2022-09-10T16:00:42.943Z,55.17
2022-09-10T16:03:55.488Z,55.79
2022-09-10T16:06:59.035Z,58.75
2022-09-10T16:10:22.026Z,58.51
2022-09-10T16:13:46.886Z,62.15
2022-09-10T16:16:54.528Z,60.04
2022-09-10T16:20:00.162Z,61.73
2022-09-10T16:23:04.371Z,60.58
2022-09-10T16:26:09.599Z,59.11
2022-09-10T16:29:29.818Z,61.01
2022-09-10T16:32:32.630Z,61.31
2022-09-10T16:35:55.501Z,61.51
2022-09-10T16:39:02.869Z,61.36
2022-09-10T16:42:42.762Z,63.04
2022-09-10T16:45:52.026Z,63.25
2022-09-10T16:49:18.458Z,64.04
2022-09-10T16:52:42.075Z,65.90
2022-09-10T16:55:45.837Z,66.96
2022-09-10T16:58:48.856Z,70.48
2022-09-10T17:01:53.271Z,69.20
2022-09-10T17:04:56.692Z,72.57
2022-09-10T17:08:01.928Z,72.67
2022-09-10T17:11:04.806Z,72.58
2022-09-10T17:14:08.333Z,72.13
2022-09-10T17:17:15.721Z,72.15
2022-09-10T17:20:19.509Z,70.59
2022-09-10T17:23:42.173Z,67.83
2022-09-10T17:26:46.157Z,68.30
2022-09-10T17:29:51.912Z,68.35
2022-09-10T17:32:55.098Z,68.68
2022-09-10T17:36:18.120Z,69.26
2022-09-10T17:40:01.342Z,69.56
2022-09-10T17:43:04.299Z,70.46
2022-09-10T17:46:13.013Z,68.03
2022-09-10T17:49:35.834Z,69.91
2022-09-10T17:52:59.407Z,69.60
2022-09-10T17:56:23.653Z,67.04
2022-09-10T17:59:27.512Z,70.76
2022-09-10T18:02:31.040Z,69.99
2022-09-10T18:05:39.272Z,70.12
2022-09-10T18:19:48.514Z,70.37
2022-09-10T18:23:07.554Z,69.74
2022-09-10T18:26:33.244Z,70.88
2022-09-10T18:29:38.936Z,71.71
2022-09-10T18:32:41.752Z,72.46
2022-09-10T18:35:47.508Z,74.58
2022-09-10T18:38:50.635Z,74.06
2022-09-10T18:41:55.005Z,74.83
2022-09-10T18:45:00.423Z,74.82
2022-09-10T18:48:24.012Z,74.05
2022-09-10T18:51:47.232Z,76.19
2022-09-10T18:55:12.211Z,75.82
2022-09-10T18:59:01.147Z,76.03
2022-09-10T19:02:08.082Z,76.29
2022-09-10T19:05:12.561Z,76.01
2022-09-10T19:08:28.079Z,76.62
2022-09-10T19:11:34.300Z,78.03
2022-09-10T19:14:37.696Z,77.60
2022-09-10T19:17:40.364Z,77.42
2022-09-10T19:20:43.270Z,77.25
2022-09-10T19:23:46.671Z,77.79
2022-09-10T19:26:49.959Z,79.32
2022-09-10T19:29:53.374Z,75.77
2022-09-10T19:32:57.295Z,76.37
2022-09-10T19:36:16.002Z,76.73
2022-09-10T19:39:21.673Z,78.25
2022-09-10T19:42:24.553Z,76.12
2022-09-10T19:45:28.076Z,76.26
2022-09-10T19:48:30.965Z,76.63
2022-09-10T19:51:36.550Z,77.48
2022-09-10T19:54:39.981Z,78.97
2022-09-10T19:57:42.936Z,80.27
2022-09-10T20:00:48.874Z,81.32
2022-09-10T20:03:53.600Z,82.65
2022-09-10T20:06:56.232Z,83.48
2022-09-10T20:10:01.547Z,81.52
2022-09-10T20:13:04.964Z,81.77
2022-09-10T20:16:08.610Z,83.29
2022-09-10T20:19:13.802Z,83.12
2022-09-10T20:22:16.773Z,82.26
2022-09-10T20:25:19.462Z,82.77
2022-09-10T20:28:22.458Z,81.94
2022-09-10T20:31:27.451Z,82.88
2022-09-10T20:34:31.376Z,80.69
2022-09-10T20:37:34.504Z,82.35
2022-09-10T20:40:41.674Z,82.10
2022-09-10T20:43:44.495Z,81.85
2022-09-10T20:46:47.992Z,82.04
2022-09-10T20:49:50.667Z,82.06
2022-09-10T20:52:53.601Z,83.14
2022-09-10T20:56:07.915Z,82.70
2022-09-10T20:59:12.817Z,82.75
2022-09-10T21:02:15.672Z,82.83
2022-09-10T21:05:20.697Z,83.73
2022-09-10T21:08:31.384Z,85.00
2022-09-10T21:11:36.109Z,84.02
2022-09-10T21:14:39.194Z,83.99
2022-09-10T21:17:42.197Z,83.08
2022-09-10T21:20:45.218Z,84.98
2022-09-10T21:23:59.866Z,83.27
2022-09-10T21:27:03.666Z,84.50
2022-09-10T21:30:07.134Z,84.19
2022-09-10T21:33:09.791Z,82.32
2022-09-10T21:36:16.133Z,80.11
2022-09-10T21:39:18.812Z,81.76
2022-09-10T21:42:21.925Z,79.75
2022-09-10T21:45:26.338Z,80.24
2022-09-10T21:48:30.346Z,79.60
2022-09-10T21:51:33.257Z,80.43
2022-09-10T21:54:36.619Z,80.85
2022-09-10T21:57:39.404Z,80.42
2022-09-10T22:00:42.317Z,79.83
2022-09-10T22:03:47.268Z,79.14
2022-09-10T22:06:49.918Z,80.38
2022-09-10T22:09:53.007Z,79.68
2022-09-10T22:12:55.912Z,80.54
2022-09-10T22:15:59.683Z,80.25
2022-09-10T22:19:08.086Z,80.37
2022-09-10T22:22:11.500Z,80.42
2022-09-10T22:25:18.590Z,80.20
2022-09-10T22:28:22.699Z,78.75
2022-09-10T22:31:28.338Z,80.30
2022-09-10T22:34:31.299Z,81.83
2022-09-10T22:37:43.553Z,81.62
2022-09-10T22:40:47.237Z,83.35
2022-09-10T22:43:50.486Z,85.04
2022-09-10T22:46:54.007Z,83.31
2022-09-10T22:49:57.359Z,81.83
2022-09-10T22:53:01.353Z,81.54
2022-09-10T22:56:04.439Z,82.13
2022-09-10T22:59:11.279Z,83.57
2022-09-10T23:02:13.861Z,83.27
2022-09-10T23:05:17.235Z,84.65
2022-09-10T23:08:20.059Z,85.72
2022-09-10T23:11:31.023Z,86.14
2022-09-10T23:14:33.646Z,86.33
2022-09-10T23:17:45.066Z,88.31
2022-09-10T23:20:49.384Z,87.39
2022-09-10T23:23:58.047Z,86.94
2022-09-10T23:27:00.918Z,87.24
2022-09-10T23:30:05.097Z,86.63
2022-09-10T23:33:07.667Z,85.63
2022-09-10T23:36:13.461Z,84.70
2022-09-10T23:39:25.308Z,85.03
2022-09-10T23:42:29.081Z,84.17
2022-09-10T23:45:32.671Z,84.28
2022-09-10T23:48:36.637Z,84.33
2022-09-10T23:51:39.431Z,84.12
2022-09-10T23:54:42.326Z,83.64
2022-09-10T23:57:44.930Z,84.40
